This is the latest recevied weather packets stored in our database for station/object DG0PX-12. If no packets are shown the sender has not sent any weather packets the latest 10 day(s).
| Time | Temp. | Humidity | Pressure | Rain* | Wind** | Luminosity | Snow |
|---|---|---|---|---|---|---|---|
| 1787974186 | 21.11° C | 59% | 950.4 hPa | - | - | - | - |
| 1787973286 | 22.78° C | 54% | 950.5 hPa | - | - | - | - |
| 1787972386 | 22.78° C | 56% | 950.6 hPa | - | - | - | - |
| 1787971486 | 23.33° C | 54% | 950.8 hPa | - | - | - | - |
| 1787970586 | 21.11° C | 60% | 950.7 hPa | - | - | - | - |
| 1787969686 | 22.78° C | 55% | 950.8 hPa | - | - | - | - |
| 1787968786 | 22.22° C | 58% | 950.6 hPa | - | - | - | - |
| 1787967886 | 21.67° C | 62% | 950.5 hPa | - | - | - | - |
| 1787966986 | 21.67° C | 58% | 950.6 hPa | - | - | - | - |
| 1787966086 | 21.67° C | 57% | 950.8 hPa | - | - | - | - |
| 1787965186 | 22.22° C | 56% | 950.9 hPa | - | - | - | - |
| 1787964286 | 21.11° C | 63% | 950.7 hPa | - | - | - | - |
| 1787963386 | 18.89° C | 72% | 950.5 hPa | - | - | - | - |
| 1787962486 | 17.78° C | 77% | 950.6 hPa | - | - | - | - |
| 1787961586 | 18.33° C | 74% | 951.1 hPa | - | - | - | - |
| 1787960686 | 20.56° C | 68% | 951.9 hPa | - | - | - | - |
| 1787959785 | 21.11° C | 67% | 952 hPa | - | - | - | - |
| 1787958885 | 22.22° C | 64% | 952.4 hPa | - | - | - | - |
| 1787957985 | 21.11° C | 70% | 952.7 hPa | - | - | - | - |
| 1787957085 | 21.11° C | 71% | 952.6 hPa | - | - | - | - |
| 1787956185 | 21.67° C | 74% | 952.6 hPa | - | - | - | - |
| 1787955285 | 22.22° C | 74% | 952.5 hPa | - | - | - | - |
| 1787954385 | 22.22° C | 75% | 952.4 hPa | - | - | - | - |
| 1787953485 | 22.78° C | 75% | 952.3 hPa | - | - | - | - |
| 1787952585 | 22.78° C | 78% | 952.3 hPa | - | - | - | - |
* Rain since midnight (hover to see other rain measurements)
** Current wind speed in m/s (hover to see current wind gust speed)